sensor_id;sensor_type;location;lat;lon;timestamp;pressure;altitude;pressure_sealevel;temperature;humidity
12781;BME280;6454;43.304;24.344;2022-08-27T00:01:11;99638.97;;;21.13;75.20
12781;BME280;6454;43.304;24.344;2022-08-27T00:03:41;99614.75;;;20.80;76.00
12781;BME280;6454;43.304;24.344;2022-08-27T00:06:09;99629.84;;;20.86;75.76
12781;BME280;6454;43.304;24.344;2022-08-27T00:08:37;99665.53;;;21.02;75.53
12781;BME280;6454;43.304;24.344;2022-08-27T00:11:04;99662.63;;;20.91;75.68
12781;BME280;6454;43.304;24.344;2022-08-27T00:13:31;99657.75;;;20.85;75.17
12781;BME280;6454;43.304;24.344;2022-08-27T00:15:58;99661.81;;;20.91;74.82
12781;BME280;6454;43.304;24.344;2022-08-27T00:18:26;99666.59;;;20.94;75.62
12781;BME280;6454;43.304;24.344;2022-08-27T00:20:53;99661.00;;;20.90;76.10
12781;BME280;6454;43.304;24.344;2022-08-27T00:23:20;99665.38;;;20.91;76.10
12781;BME280;6454;43.304;24.344;2022-08-27T00:25:47;99659.34;;;20.86;76.39
12781;BME280;6454;43.304;24.344;2022-08-27T00:28:14;99660.94;;;20.87;76.40
12781;BME280;6454;43.304;24.344;2022-08-27T00:30:41;99666.31;;;20.80;76.82
12781;BME280;6454;43.304;24.344;2022-08-27T00:33:08;99657.50;;;20.71;77.07
12781;BME280;6454;43.304;24.344;2022-08-27T00:35:36;99670.09;;;20.72;77.08
12781;BME280;6454;43.304;24.344;2022-08-27T00:38:04;99608.63;;;20.26;77.10
12781;BME280;6454;43.304;24.344;2022-08-27T00:40:32;99668.81;;;20.66;77.30
12781;BME280;6454;43.304;24.344;2022-08-27T00:42:59;99665.25;;;20.65;77.10
12781;BME280;6454;43.304;24.344;2022-08-27T00:45:28;99668.69;;;20.59;76.57
12781;BME280;6454;43.304;24.344;2022-08-27T00:47:59;99595.69;;;20.11;76.55
12781;BME280;6454;43.304;24.344;2022-08-27T00:50:30;99667.38;;;20.52;76.38
12781;BME280;6454;43.304;24.344;2022-08-27T00:53:02;99665.00;;;20.51;75.48
12781;BME280;6454;43.304;24.344;2022-08-27T00:55:32;99663.47;;;20.53;74.96
12781;BME280;6454;43.304;24.344;2022-08-27T00:58:10;99669.41;;;20.55;75.01
12781;BME280;6454;43.304;24.344;2022-08-27T01:00:43;99645.78;;;20.35;74.06
12781;BME280;6454;43.304;24.344;2022-08-27T01:03:10;99663.09;;;20.55;74.26
12781;BME280;6454;43.304;24.344;2022-08-27T01:05:38;99671.44;;;20.59;73.09
12781;BME280;6454;43.304;24.344;2022-08-27T01:08:09;99666.00;;;20.62;72.49
12781;BME280;6454;43.304;24.344;2022-08-27T01:10:38;99608.50;;;20.22;72.23
12781;BME280;6454;43.304;24.344;2022-08-27T01:13:07;99671.19;;;20.67;72.24
12781;BME280;6454;43.304;24.344;2022-08-27T01:15:34;99667.66;;;20.67;71.73
12781;BME280;6454;43.304;24.344;2022-08-27T01:18:03;99664.47;;;20.65;71.98
12781;BME280;6454;43.304;24.344;2022-08-27T01:20:41;99663.81;;;20.71;71.89
12781;BME280;6454;43.304;24.344;2022-08-27T01:23:15;99671.72;;;20.73;71.64
12781;BME280;6454;43.304;24.344;2022-08-27T01:25:46;99665.81;;;20.74;71.41
12781;BME280;6454;43.304;24.344;2022-08-27T01:28:15;99660.44;;;20.59;71.32
12781;BME280;6454;43.304;24.344;2022-08-27T01:30:42;99671.78;;;20.76;71.36
12781;BME280;6454;43.304;24.344;2022-08-27T01:33:11;99670.56;;;20.74;70.91
12781;BME280;6454;43.304;24.344;2022-08-27T01:35:39;99671.09;;;20.83;70.81
12781;BME280;6454;43.304;24.344;2022-08-27T01:38:07;99668.78;;;20.85;70.99
12781;BME280;6454;43.304;24.344;2022-08-27T01:40:35;99669.06;;;20.80;72.09
12781;BME280;6454;43.304;24.344;2022-08-27T01:43:03;99664.00;;;20.82;72.41
12781;BME280;6454;43.304;24.344;2022-08-27T01:45:32;99665.47;;;20.76;72.59
12781;BME280;6454;43.304;24.344;2022-08-27T01:48:00;99667.81;;;20.74;71.79
12781;BME280;6454;43.304;24.344;2022-08-27T01:50:29;99672.09;;;20.71;71.24
12781;BME280;6454;43.304;24.344;2022-08-27T01:53:00;99668.81;;;20.66;71.05
12781;BME280;6454;43.304;24.344;2022-08-27T01:55:28;99670.91;;;20.72;70.84
12781;BME280;6454;43.304;24.344;2022-08-27T01:57:55;99670.84;;;20.69;71.95
12781;BME280;6454;43.304;24.344;2022-08-27T02:00:26;99672.72;;;20.65;72.13
12781;BME280;6454;43.304;24.344;2022-08-27T02:02:54;99669.97;;;20.65;71.73
12781;BME280;6454;43.304;24.344;2022-08-27T02:05:21;99675.44;;;20.61;72.90
12781;BME280;6454;43.304;24.344;2022-08-27T02:07:49;99673.81;;;20.60;72.04
12781;BME280;6454;43.304;24.344;2022-08-27T02:10:19;99636.59;;;20.28;73.14
12781;BME280;6454;43.304;24.344;2022-08-27T02:12:46;99674.28;;;20.43;73.95
12781;BME280;6454;43.304;24.344;2022-08-27T02:15:14;99678.13;;;20.38;74.53
12781;BME280;6454;43.304;24.344;2022-08-27T02:17:42;99681.03;;;20.26;75.00
12781;BME280;6454;43.304;24.344;2022-08-27T02:20:10;99677.81;;;20.24;74.83
12781;BME280;6454;43.304;24.344;2022-08-27T02:22:39;99672.78;;;20.11;74.68
12781;BME280;6454;43.304;24.344;2022-08-27T02:25:07;99675.19;;;20.12;74.82
12781;BME280;6454;43.304;24.344;2022-08-27T02:27:34;99690.97;;;20.15;75.03
12781;BME280;6454;43.304;24.344;2022-08-27T02:30:02;99685.03;;;20.13;75.15
12781;BME280;6454;43.304;24.344;2022-08-27T02:32:29;99693.22;;;20.10;75.36
12781;BME280;6454;43.304;24.344;2022-08-27T02:34:58;99672.03;;;19.94;75.75
12781;BME280;6454;43.304;24.344;2022-08-27T02:37:26;99678.44;;;19.99;75.46
12781;BME280;6454;43.304;24.344;2022-08-27T02:39:53;99679.44;;;19.90;75.64
12781;BME280;6454;43.304;24.344;2022-08-27T02:42:20;99690.44;;;19.90;75.15
12781;BME280;6454;43.304;24.344;2022-08-27T02:44:47;99681.38;;;19.90;75.29
12781;BME280;6454;43.304;24.344;2022-08-27T02:47:14;99685.31;;;19.89;75.26
12781;BME280;6454;43.304;24.344;2022-08-27T02:49:41;99683.69;;;19.88;75.02
12781;BME280;6454;43.304;24.344;2022-08-27T02:52:10;99679.81;;;19.89;74.97
12781;BME280;6454;43.304;24.344;2022-08-27T02:54:37;99681.31;;;19.86;74.83
12781;BME280;6454;43.304;24.344;2022-08-27T02:57:04;99687.31;;;19.92;74.92
12781;BME280;6454;43.304;24.344;2022-08-27T02:59:31;99682.91;;;19.87;75.08
12781;BME280;6454;43.304;24.344;2022-08-27T03:01:58;99688.50;;;19.91;75.16
12781;BME280;6454;43.304;24.344;2022-08-27T03:04:25;99677.06;;;19.89;75.09
12781;BME280;6454;43.304;24.344;2022-08-27T03:06:53;99682.09;;;19.87;75.32
12781;BME280;6454;43.304;24.344;2022-08-27T03:09:22;99683.31;;;19.89;74.80
12781;BME280;6454;43.304;24.344;2022-08-27T03:11:49;99682.56;;;19.89;74.31
12781;BME280;6454;43.304;24.344;2022-08-27T03:14:15;99682.63;;;19.92;74.35
12781;BME280;6454;43.304;24.344;2022-08-27T03:16:42;99690.06;;;19.92;74.38
12781;BME280;6454;43.304;24.344;2022-08-27T03:19:10;99692.81;;;19.92;74.40
12781;BME280;6454;43.304;24.344;2022-08-27T03:21:36;99692.38;;;19.90;74.26
12781;BME280;6454;43.304;24.344;2022-08-27T03:24:03;99687.97;;;19.85;73.94
12781;BME280;6454;43.304;24.344;2022-08-27T03:26:32;99691.38;;;19.79;74.38
12781;BME280;6454;43.304;24.344;2022-08-27T03:28:59;99690.28;;;19.83;74.29
12781;BME280;6454;43.304;24.344;2022-08-27T03:31:27;99668.56;;;19.63;74.13
12781;BME280;6454;43.304;24.344;2022-08-27T03:33:56;99705.81;;;19.91;73.63
12781;BME280;6454;43.304;24.344;2022-08-27T03:36:23;99708.56;;;19.91;73.09
12781;BME280;6454;43.304;24.344;2022-08-27T03:38:50;99701.44;;;19.90;73.66
12781;BME280;6454;43.304;24.344;2022-08-27T03:41:17;99677.22;;;19.80;74.40
12781;BME280;6454;43.304;24.344;2022-08-27T03:43:46;99709.53;;;19.99;74.32
12781;BME280;6454;43.304;24.344;2022-08-27T03:46:13;99670.34;;;19.71;74.73
12781;BME280;6454;43.304;24.344;2022-08-27T03:48:40;99713.41;;;19.98;75.09
12781;BME280;6454;43.304;24.344;2022-08-27T03:51:10;99714.84;;;19.92;75.30
12781;BME280;6454;43.304;24.344;2022-08-27T03:53:38;99716.03;;;19.91;75.26
12781;BME280;6454;43.304;24.344;2022-08-27T03:56:06;99719.91;;;19.90;75.76
12781;BME280;6454;43.304;24.344;2022-08-27T03:58:34;99720.56;;;19.83;76.59
12781;BME280;6454;43.304;24.344;2022-08-27T04:01:04;99690.41;;;19.56;77.12
12781;BME280;6454;43.304;24.344;2022-08-27T04:03:31;99717.28;;;19.78;77.47
12781;BME280;6454;43.304;24.344;2022-08-27T04:05:58;99720.31;;;19.73;77.14
12781;BME280;6454;43.304;24.344;2022-08-27T04:08:26;99726.69;;;19.77;76.72
12781;BME280;6454;43.304;24.344;2022-08-27T04:10:53;99724.66;;;19.74;77.27
12781;BME280;6454;43.304;24.344;2022-08-27T04:13:21;99720.31;;;19.73;77.63
12781;BME280;6454;43.304;24.344;2022-08-27T04:30:48;99734.06;;;20.23;76.77
12781;BME280;6454;43.304;24.344;2022-08-27T04:33:15;99736.72;;;20.20;76.89
12781;BME280;6454;43.304;24.344;2022-08-27T04:35:42;99727.72;;;20.04;77.83
12781;BME280;6454;43.304;24.344;2022-08-27T04:38:09;99734.19;;;20.11;78.11
12781;BME280;6454;43.304;24.344;2022-08-27T04:40:36;99722.53;;;20.02;78.92
12781;BME280;6454;43.304;24.344;2022-08-27T04:43:20;99742.06;;;20.13;78.96
12781;BME280;6454;43.304;24.344;2022-08-27T04:45:49;99742.88;;;20.13;78.94
12781;BME280;6454;43.304;24.344;2022-08-27T04:48:17;99739.03;;;20.18;78.86
12781;BME280;6454;43.304;24.344;2022-08-27T04:50:45;99751.03;;;20.25;78.70
12781;BME280;6454;43.304;24.344;2022-08-27T04:53:14;99746.47;;;20.33;78.07
12781;BME280;6454;43.304;24.344;2022-08-27T04:55:42;99700.03;;;19.97;76.58
12781;BME280;6454;43.304;24.344;2022-08-27T04:58:09;99748.28;;;20.44;76.02
12781;BME280;6454;43.304;24.344;2022-08-27T05:00:41;99750.41;;;20.51;74.65
12781;BME280;6454;43.304;24.344;2022-08-27T05:03:10;99712.75;;;20.39;74.22
12781;BME280;6454;43.304;24.344;2022-08-27T05:05:37;99756.66;;;20.67;73.87
12781;BME280;6454;43.304;24.344;2022-08-27T05:08:04;99752.06;;;20.75;73.33
12781;BME280;6454;43.304;24.344;2022-08-27T05:10:38;99751.63;;;20.92;72.32
12781;BME280;6454;43.304;24.344;2022-08-27T05:13:05;99754.53;;;20.99;72.16
12781;BME280;6454;43.304;24.344;2022-08-27T05:15:33;99747.28;;;21.10;71.36
12781;BME280;6454;43.304;24.344;2022-08-27T05:18:00;99747.47;;;21.21;71.19
12781;BME280;6454;43.304;24.344;2022-08-27T05:20:30;99753.19;;;21.31;70.75
12781;BME280;6454;43.304;24.344;2022-08-27T05:22:58;99747.06;;;21.41;69.95
12781;BME280;6454;43.304;24.344;2022-08-27T05:25:25;99740.94;;;21.51;69.71
12781;BME280;6454;43.304;24.344;2022-08-27T05:27:52;99745.03;;;21.61;69.30
12781;BME280;6454;43.304;24.344;2022-08-27T05:30:19;99749.13;;;21.70;69.38
12781;BME280;6454;43.304;24.344;2022-08-27T05:32:46;99747.63;;;21.76;69.97
12781;BME280;6454;43.304;24.344;2022-08-27T05:35:13;99736.78;;;21.87;69.66
12781;BME280;6454;43.304;24.344;2022-08-27T05:37:42;99742.88;;;22.00;69.84
12781;BME280;6454;43.304;24.344;2022-08-27T05:40:09;99741.34;;;22.02;69.94
12781;BME280;6454;43.304;24.344;2022-08-27T05:42:36;99751.53;;;22.24;69.60
12781;BME280;6454;43.304;24.344;2022-08-27T05:45:04;99751.69;;;22.35;69.40
12781;BME280;6454;43.304;24.344;2022-08-27T05:47:31;99756.59;;;22.49;68.47
12781;BME280;6454;43.304;24.344;2022-08-27T05:49:58;99740.44;;;22.51;67.34
12781;BME280;6454;43.304;24.344;2022-08-27T05:52:25;99699.50;;;22.30;66.40
12781;BME280;6454;43.304;24.344;2022-08-27T05:54:53;99755.47;;;22.83;65.58
12781;BME280;6454;43.304;24.344;2022-08-27T05:57:20;99764.31;;;22.95;65.20
12781;BME280;6454;43.304;24.344;2022-08-27T05:59:47;99756.91;;;23.06;65.23
12781;BME280;6454;43.304;24.344;2022-08-27T06:02:32;99762.59;;;23.21;64.46
12781;BME280;6454;43.304;24.344;2022-08-27T06:05:02;99767.88;;;23.33;63.87
12781;BME280;6454;43.304;24.344;2022-08-27T06:07:29;99769.97;;;23.43;61.92
12781;BME280;6454;43.304;24.344;2022-08-27T06:09:57;99762.53;;;23.54;61.31
12781;BME280;6454;43.304;24.344;2022-08-27T06:12:24;99776.88;;;23.63;61.01
12781;BME280;6454;43.304;24.344;2022-08-27T06:14:51;99761.13;;;23.74;59.98
12781;BME280;6454;43.304;24.344;2022-08-27T06:17:18;99722.56;;;23.51;59.67
12781;BME280;6454;43.304;24.344;2022-08-27T06:19:46;99773.16;;;23.92;60.17
12781;BME280;6454;43.304;24.344;2022-08-27T06:22:13;99771.66;;;24.05;60.30
12781;BME280;6454;43.304;24.344;2022-08-27T06:24:41;99772.53;;;24.16;59.20
12781;BME280;6454;43.304;24.344;2022-08-27T06:27:11;99779.78;;;24.31;58.90
12781;BME280;6454;43.304;24.344;2022-08-27T06:29:39;99779.81;;;24.39;58.66
12781;BME280;6454;43.304;24.344;2022-08-27T06:32:07;99774.31;;;24.49;57.63
12781;BME280;6454;43.304;24.344;2022-08-27T06:34:35;99776.75;;;24.61;57.44
12781;BME280;6454;43.304;24.344;2022-08-27T06:37:03;99776.00;;;24.68;57.00
12781;BME280;6454;43.304;24.344;2022-08-27T06:39:30;99784.41;;;24.82;57.25
12781;BME280;6454;43.304;24.344;2022-08-27T06:41:57;99784.84;;;24.94;57.36
12781;BME280;6454;43.304;24.344;2022-08-27T06:44:25;99783.72;;;25.10;56.66
12781;BME280;6454;43.304;24.344;2022-08-27T06:46:52;99784.91;;;25.16;55.41
12781;BME280;6454;43.304;24.344;2022-08-27T06:49:20;99783.75;;;25.24;53.96
12781;BME280;6454;43.304;24.344;2022-08-27T06:51:48;99780.19;;;25.34;54.87
12781;BME280;6454;43.304;24.344;2022-08-27T06:54:15;99745.22;;;25.08;54.13
12781;BME280;6454;43.304;24.344;2022-08-27T06:56:44;99790.56;;;25.54;53.43
12781;BME280;6454;43.304;24.344;2022-08-27T06:59:13;99789.00;;;25.64;52.24
12781;BME280;6454;43.304;24.344;2022-08-27T07:01:44;99796.94;;;25.73;52.39
12781;BME280;6454;43.304;24.344;2022-08-27T07:04:17;99789.00;;;25.82;50.45
12781;BME280;6454;43.304;24.344;2022-08-27T07:06:44;99788.19;;;25.99;50.56
12781;BME280;6454;43.304;24.344;2022-08-27T07:09:11;99795.34;;;26.07;50.46
12781;BME280;6454;43.304;24.344;2022-08-27T07:11:38;99794.94;;;26.19;49.34
12781;BME280;6454;43.304;24.344;2022-08-27T07:14:06;99796.53;;;26.27;49.96
12781;BME280;6454;43.304;24.344;2022-08-27T07:16:34;99777.03;;;26.34;49.21
12781;BME280;6454;43.304;24.344;2022-08-27T07:19:04;99785.34;;;26.52;48.93
12781;BME280;6454;43.304;24.344;2022-08-27T07:21:31;99794.47;;;26.59;48.69
12781;BME280;6454;43.304;24.344;2022-08-27T07:23:59;99791.25;;;26.64;48.29
12781;BME280;6454;43.304;24.344;2022-08-27T07:26:30;99787.25;;;26.72;47.85
12781;BME280;6454;43.304;24.344;2022-08-27T07:28:58;99785.66;;;26.82;47.48
12781;BME280;6454;43.304;24.344;2022-08-27T07:31:25;99793.13;;;26.96;47.32
12781;BME280;6454;43.304;24.344;2022-08-27T07:33:52;99793.53;;;27.01;46.80
12781;BME280;6454;43.304;24.344;2022-08-27T07:36:21;99797.00;;;27.16;46.13
12781;BME280;6454;43.304;24.344;2022-08-27T07:38:48;99791.81;;;27.18;46.36
12781;BME280;6454;43.304;24.344;2022-08-27T07:41:16;99798.94;;;27.26;46.30
12781;BME280;6454;43.304;24.344;2022-08-27T07:43:43;99794.94;;;27.34;45.91
12781;BME280;6454;43.304;24.344;2022-08-27T07:46:27;99792.84;;;27.52;46.54
12781;BME280;6454;43.304;24.344;2022-08-27T07:48:54;99805.13;;;27.58;45.26
12781;BME280;6454;43.304;24.344;2022-08-27T07:51:25;99807.88;;;27.65;45.64
12781;BME280;6454;43.304;24.344;2022-08-27T07:53:53;99792.63;;;27.80;47.62
12781;BME280;6454;43.304;24.344;2022-08-27T07:56:20;99795.31;;;27.91;46.98
12781;BME280;6454;43.304;24.344;2022-08-27T07:58:48;99800.44;;;27.99;46.31
12781;BME280;6454;43.304;24.344;2022-08-27T08:01:15;99789.63;;;28.08;44.71
12781;BME280;6454;43.304;24.344;2022-08-27T08:03:42;99792.38;;;28.12;46.05
12781;BME280;6454;43.304;24.344;2022-08-27T08:06:10;99795.03;;;28.23;43.94
12781;BME280;6454;43.304;24.344;2022-08-27T08:08:40;99764.16;;;28.06;43.96
12781;BME280;6454;43.304;24.344;2022-08-27T08:11:08;99797.72;;;28.37;43.65
12781;BME280;6454;43.304;24.344;2022-08-27T08:13:36;99798.38;;;28.48;42.89
12781;BME280;6454;43.304;24.344;2022-08-27T08:16:04;99798.72;;;28.53;42.97
12781;BME280;6454;43.304;24.344;2022-08-27T08:29:49;99794.25;;;29.77;41.65
12781;BME280;6454;43.304;24.344;2022-08-27T08:32:16;99792.28;;;29.77;42.32
12781;BME280;6454;43.304;24.344;2022-08-27T08:34:46;99787.50;;;29.74;40.95
12781;BME280;6454;43.304;24.344;2022-08-27T08:37:13;99793.91;;;29.75;39.62
12781;BME280;6454;43.304;24.344;2022-08-27T08:39:40;99794.75;;;29.72;40.12
12781;BME280;6454;43.304;24.344;2022-08-27T08:42:17;99793.09;;;29.74;39.82
12781;BME280;6454;43.304;24.344;2022-08-27T08:44:51;99790.28;;;29.78;39.37
12781;BME280;6454;43.304;24.344;2022-08-27T08:47:22;99797.75;;;29.84;39.94
12781;BME280;6454;43.304;24.344;2022-08-27T08:49:53;99793.41;;;29.83;40.44
12781;BME280;6454;43.304;24.344;2022-08-27T08:52:31;99803.66;;;29.90;39.77
12781;BME280;6454;43.304;24.344;2022-08-27T08:55:14;99788.41;;;29.94;38.34
12781;BME280;6454;43.304;24.344;2022-08-27T08:57:48;99791.16;;;29.98;36.99
12781;BME280;6454;43.304;24.344;2022-08-27T09:00:19;99785.91;;;30.00;38.17
12781;BME280;6454;43.304;24.344;2022-08-27T09:02:49;99753.81;;;29.85;38.31
12781;BME280;6454;43.304;24.344;2022-08-27T09:05:20;99779.78;;;30.09;38.47
12781;BME280;6454;43.304;24.344;2022-08-27T09:07:51;99761.41;;;30.08;38.08
12781;BME280;6454;43.304;24.344;2022-08-27T09:10:24;99784.91;;;30.33;37.48
12781;BME280;6454;43.304;24.344;2022-08-27T09:12:55;99779.31;;;30.33;36.77
12781;BME280;6454;43.304;24.344;2022-08-27T09:15:28;99784.00;;;30.40;35.14
12781;BME280;6454;43.304;24.344;2022-08-27T09:18:04;99788.81;;;30.39;37.65
12781;BME280;6454;43.304;24.344;2022-08-27T09:20:32;99788.63;;;30.50;36.75
12781;BME280;6454;43.304;24.344;2022-08-27T09:23:05;99791.22;;;30.60;36.10
12781;BME280;6454;43.304;24.344;2022-08-27T09:25:38;99776.22;;;30.71;35.53
12781;BME280;6454;43.304;24.344;2022-08-27T09:28:08;99780.06;;;30.77;35.81
12781;BME280;6454;43.304;24.344;2022-08-27T09:31:02;99777.78;;;30.72;35.34
12781;BME280;6454;43.304;24.344;2022-08-27T09:33:30;99777.25;;;30.77;34.84
12781;BME280;6454;43.304;24.344;2022-08-27T09:36:00;99754.88;;;30.57;34.92
12781;BME280;6454;43.304;24.344;2022-08-27T09:38:29;99774.06;;;30.58;36.47
12781;BME280;6454;43.304;24.344;2022-08-27T09:41:00;99780.94;;;30.74;34.27
12781;BME280;6454;43.304;24.344;2022-08-27T09:43:29;99783.59;;;30.81;34.85
12781;BME280;6454;43.304;24.344;2022-08-27T09:45:59;99773.41;;;30.71;33.95
12781;BME280;6454;43.304;24.344;2022-08-27T09:48:29;99775.84;;;30.88;34.11
12781;BME280;6454;43.304;24.344;2022-08-27T09:50:59;99771.78;;;30.89;33.64
12781;BME280;6454;43.304;24.344;2022-08-27T09:53:29;99768.22;;;31.08;34.45
12781;BME280;6454;43.304;24.344;2022-08-27T09:55:59;99769.56;;;31.20;33.91
12781;BME280;6454;43.304;24.344;2022-08-27T09:58:30;99766.88;;;31.33;34.50
12781;BME280;6454;43.304;24.344;2022-08-27T10:01:02;99763.09;;;31.39;33.88
12781;BME280;6454;43.304;24.344;2022-08-27T10:03:30;99750.22;;;31.42;34.11
12781;BME280;6454;43.304;24.344;2022-08-27T10:05:57;99762.19;;;31.62;34.17
12781;BME280;6454;43.304;24.344;2022-08-27T10:08:29;99769.81;;;31.77;34.22
12781;BME280;6454;43.304;24.344;2022-08-27T10:11:03;99761.22;;;31.84;33.04
12781;BME280;6454;43.304;24.344;2022-08-27T10:13:38;99737.47;;;31.73;30.20
12781;BME280;6454;43.304;24.344;2022-08-27T10:16:38;99752.94;;;31.94;31.89
12781;BME280;6454;43.304;24.344;2022-08-27T10:19:23;99761.66;;;31.99;32.11
12781;BME280;6454;43.304;24.344;2022-08-27T10:21:59;99753.84;;;32.07;32.37
12781;BME280;6454;43.304;24.344;2022-08-27T10:24:38;99759.72;;;32.12;31.76
12781;BME280;6454;43.304;24.344;2022-08-27T10:27:13;99763.72;;;32.11;32.17
12781;BME280;6454;43.304;24.344;2022-08-27T10:29:51;99759.78;;;32.25;33.75
12781;BME280;6454;43.304;24.344;2022-08-27T10:32:40;99764.84;;;32.30;31.09
12781;BME280;6454;43.304;24.344;2022-08-27T10:35:14;99752.88;;;31.97;31.11
12781;BME280;6454;43.304;24.344;2022-08-27T10:37:47;99759.69;;;31.96;30.44
12781;BME280;6454;43.304;24.344;2022-08-27T10:40:23;99764.53;;;32.12;31.57
12781;BME280;6454;43.304;24.344;2022-08-27T10:43:03;99762.56;;;32.25;31.13
12781;BME280;6454;43.304;24.344;2022-08-27T10:45:41;99760.97;;;32.40;31.08
12781;BME280;6454;43.304;24.344;2022-08-27T10:48:20;99758.09;;;32.56;31.04
12781;BME280;6454;43.304;24.344;2022-08-27T10:50:53;99764.56;;;32.69;31.17
12781;BME280;6454;43.304;24.344;2022-08-27T10:53:28;99763.59;;;32.76;29.68
12781;BME280;6454;43.304;24.344;2022-08-27T10:56:05;99762.78;;;32.75;29.35
12781;BME280;6454;43.304;24.344;2022-08-27T10:58:42;99742.13;;;32.82;30.59
12781;BME280;6454;43.304;24.344;2022-08-27T11:01:21;99756.97;;;32.95;29.96
12781;BME280;6454;43.304;24.344;2022-08-27T11:03:56;99757.78;;;32.95;30.67
12781;BME280;6454;43.304;24.344;2022-08-27T11:06:30;99753.75;;;33.09;30.39
12781;BME280;6454;43.304;24.344;2022-08-27T11:09:02;99750.63;;;33.20;31.10
12781;BME280;6454;43.304;24.344;2022-08-27T11:11:36;99756.47;;;33.13;28.82
12781;BME280;6454;43.304;24.344;2022-08-27T11:14:06;99754.56;;;33.22;27.38
12781;BME280;6454;43.304;24.344;2022-08-27T11:16:44;99750.63;;;33.20;28.20
12781;BME280;6454;43.304;24.344;2022-08-27T11:19:18;99746.34;;;33.28;29.77
12781;BME280;6454;43.304;24.344;2022-08-27T11:21:58;99749.59;;;33.39;28.19
12781;BME280;6454;43.304;24.344;2022-08-27T11:24:32;99752.06;;;33.37;28.05
12781;BME280;6454;43.304;24.344;2022-08-27T11:27:03;99751.19;;;33.40;26.73
12781;BME280;6454;43.304;24.344;2022-08-27T11:29:33;99758.25;;;33.32;27.57
12781;BME280;6454;43.304;24.344;2022-08-27T11:32:09;99749.72;;;33.35;27.49
12781;BME280;6454;43.304;24.344;2022-08-27T11:34:43;99747.91;;;33.41;26.87
12781;BME280;6454;43.304;24.344;2022-08-27T11:37:33;99748.25;;;33.43;26.30
12781;BME280;6454;43.304;24.344;2022-08-27T11:40:20;99742.41;;;33.50;25.04
12781;BME280;6454;43.304;24.344;2022-08-27T11:42:52;99751.06;;;33.56;25.66
12781;BME280;6454;43.304;24.344;2022-08-27T11:45:24;99735.75;;;33.44;24.67
12781;BME280;6454;43.304;24.344;2022-08-27T11:47:57;99730.47;;;33.46;25.47
12781;BME280;6454;43.304;24.344;2022-08-27T11:50:28;99736.09;;;33.59;25.43
12781;BME280;6454;43.304;24.344;2022-08-27T11:52:59;99732.16;;;33.69;25.43
12781;BME280;6454;43.304;24.344;2022-08-27T11:55:30;99737.66;;;33.72;25.58
12781;BME280;6454;43.304;24.344;2022-08-27T11:58:06;99738.03;;;33.62;25.07
12781;BME280;6454;43.304;24.344;2022-08-27T12:00:36;99718.66;;;33.39;24.73
12781;BME280;6454;43.304;24.344;2022-08-27T12:03:05;99726.31;;;33.38;24.64
12781;BME280;6454;43.304;24.344;2022-08-27T12:05:40;99725.63;;;33.47;25.09
12781;BME280;6454;43.304;24.344;2022-08-27T12:08:15;99712.22;;;33.51;25.31
12781;BME280;6454;43.304;24.344;2022-08-27T12:10:53;99718.66;;;33.64;24.79
12781;BME280;6454;43.304;24.344;2022-08-27T12:13:29;99719.22;;;33.71;25.00
12781;BME280;6454;43.304;24.344;2022-08-27T12:16:05;99708.50;;;33.79;25.50
12781;BME280;6454;43.304;24.344;2022-08-27T12:18:50;99708.94;;;33.90;25.04
12781;BME280;6454;43.304;24.344;2022-08-27T12:21:48;99705.53;;;33.95;23.96
12781;BME280;6454;43.304;24.344;2022-08-27T12:24:41;99708.94;;;33.90;25.16
12781;BME280;6454;43.304;24.344;2022-08-27T12:27:25;99701.03;;;33.98;26.07
12781;BME280;6454;43.304;24.344;2022-08-27T12:29:56;99706.66;;;33.98;25.12
12781;BME280;6454;43.304;24.344;2022-08-27T12:32:28;99695.50;;;33.94;25.52
12781;BME280;6454;43.304;24.344;2022-08-27T12:35:08;99701.44;;;34.09;24.94
12781;BME280;6454;43.304;24.344;2022-08-27T12:37:39;99689.75;;;34.10;25.25
12781;BME280;6454;43.304;24.344;2022-08-27T12:40:16;99693.66;;;34.13;25.82
12781;BME280;6454;43.304;24.344;2022-08-27T12:42:44;99689.47;;;34.17;25.89
12781;BME280;6454;43.304;24.344;2022-08-27T12:45:21;99694.53;;;34.22;26.12
12781;BME280;6454;43.304;24.344;2022-08-27T12:47:49;99691.13;;;34.27;25.80
12781;BME280;6454;43.304;24.344;2022-08-27T12:50:22;99690.31;;;34.27;25.44
12781;BME280;6454;43.304;24.344;2022-08-27T12:53:37;99687.25;;;34.34;25.74
12781;BME280;6454;43.304;24.344;2022-08-27T12:56:20;99687.38;;;34.30;25.88
12781;BME280;6454;43.304;24.344;2022-08-27T12:58:57;99686.00;;;34.35;25.00
12781;BME280;6454;43.304;24.344;2022-08-27T13:01:41;99687.84;;;34.07;25.21
12781;BME280;6454;43.304;24.344;2022-08-27T13:04:19;99683.44;;;34.06;23.96
12781;BME280;6454;43.304;24.344;2022-08-27T13:06:47;99676.00;;;34.00;23.99
12781;BME280;6454;43.304;24.344;2022-08-27T13:09:15;99674.00;;;34.00;24.16
12781;BME280;6454;43.304;24.344;2022-08-27T13:11:44;99671.28;;;33.97;23.64
12781;BME280;6454;43.304;24.344;2022-08-27T13:14:14;99669.59;;;33.99;24.89
12781;BME280;6454;43.304;24.344;2022-08-27T13:16:47;99661.94;;;34.00;24.22
12781;BME280;6454;43.304;24.344;2022-08-27T13:19:20;99660.16;;;33.93;24.13
12781;BME280;6454;43.304;24.344;2022-08-27T13:21:49;99663.38;;;34.04;25.20
12781;BME280;6454;43.304;24.344;2022-08-27T13:24:25;99647.78;;;33.91;25.87
12781;BME280;6454;43.304;24.344;2022-08-27T13:26:52;99661.78;;;34.03;25.71
12781;BME280;6454;43.304;24.344;2022-08-27T13:29:19;99659.72;;;33.95;25.54
12781;BME280;6454;43.304;24.344;2022-08-27T13:31:46;99662.69;;;33.79;24.35
12781;BME280;6454;43.304;24.344;2022-08-27T13:34:18;99661.16;;;33.65;24.83
12781;BME280;6454;43.304;24.344;2022-08-27T13:36:53;99665.31;;;33.73;25.34
12781;BME280;6454;43.304;24.344;2022-08-27T13:39:24;99661.91;;;33.78;25.49
12781;BME280;6454;43.304;24.344;2022-08-27T13:41:51;99654.50;;;33.71;24.75
12781;BME280;6454;43.304;24.344;2022-08-27T13:44:20;99660.56;;;33.83;25.86